Time;durP1;ratioP1;P1;durP2;ratioP2;P2;SDS_P1;SDS_P2;PMS_P1;PMS_P2;Temp;Humidity;BMP_temperature;BMP_pressure;BME280_temperature;BME280_humidity;BME280_pressure;Samples;Min_cycle;Max_cycle;Signal;HPM_P1;HPM_P2
2023/04/24 00:01:16;;;;;;;13.23;10.27;;;;;;;8.67;100.00;99944.84;4898940;29;20515;-76
2023/04/24 00:03:42;;;;;;;11.38;9.40;;;;;;;8.71;100.00;99942.09;4890931;29;20108;-76
2023/04/24 00:06:08;;;;;;;10.27;9.02;;;;;;;8.71;100.00;99944.72;4896994;29;20028;-76
2023/04/24 00:08:35;;;;;;;12.43;8.80;;;;;;;8.68;100.00;99939.53;4880168;29;20024;-77
2023/04/24 00:11:01;;;;;;;11.40;8.20;;;;;;;8.69;100.00;99930.72;4880438;29;20044;-77
2023/04/24 00:13:28;;;;;;;9.27;7.47;;;;;;;8.72;100.00;99932.41;4895869;29;20043;-77
2023/04/24 00:15:54;;;;;;;11.43;8.73;;;;;;;8.68;100.00;99936.03;4901054;29;20048;-76
2023/04/24 00:18:20;;;;;;;11.32;8.80;;;;;;;8.69;100.00;99943.91;4896968;29;20037;-75
2023/04/24 00:20:46;;;;;;;9.90;8.38;;;;;;;8.74;100.00;99943.78;4882697;29;20043;-75
2023/04/24 00:23:14;;;;;;;10.82;9.07;;;;;;;8.74;100.00;99942.00;4880294;29;20484;-76
2023/04/24 00:25:39;;;;;;;11.18;9.00;;;;;;;8.71;100.00;99951.78;4880254;29;20080;-75
2023/04/24 00:28:05;;;;;;;12.02;9.68;;;;;;;8.68;100.00;99952.75;4897026;29;20464;-77
2023/04/24 00:30:31;;;;;;;13.32;10.52;;;;;;;8.69;100.00;99950.97;4882225;29;20048;-75
2023/04/24 00:32:57;;;;;;;21.80;10.85;;;;;;;8.64;100.00;99942.31;4880245;29;20087;-75
2023/04/24 00:35:24;;;;;;;15.68;11.13;;;;;;;8.66;100.00;99944.00;4879879;29;20388;-76
2023/04/24 00:37:50;;;;;;;15.60;12.30;;;;;;;8.68;100.00;99960.66;4880111;29;20490;-75
2023/04/24 00:40:15;;;;;;;17.17;12.45;;;;;;;8.67;100.00;99960.69;4893696;29;20084;-76
2023/04/24 00:42:43;;;;;;;16.77;12.25;;;;;;;8.64;100.00;99958.16;4895511;29;20029;-76
2023/04/24 00:45:09;;;;;;;20.55;12.88;;;;;;;8.63;100.00;99961.69;4920261;29;20047;-75
2023/04/24 00:47:34;;;;;;;18.48;14.27;;;;;;;8.62;100.00;99960.81;4883966;29;20033;-76
2023/04/24 00:50:05;;;;;;;17.70;13.93;;;;;;;8.56;100.00;99956.59;4907073;29;20377;-75
2023/04/24 00:52:34;;;;;;;17.88;13.68;;;;;;;8.64;100.00;99964.28;4894961;29;20115;-78
2023/04/24 00:54:59;;;;;;;15.95;12.80;;;;;;;8.60;100.00;99963.53;4896597;29;20144;-79
2023/04/24 00:57:26;;;;;;;21.02;15.43;;;;;;;8.59;100.00;99961.78;4909253;29;20044;-78
2023/04/24 00:59:53;;;;;;;23.80;16.55;;;;;;;8.61;100.00;99972.28;4898304;29;20047;-79
2023/04/24 01:02:20;;;;;;;27.40;16.73;;;;;;;8.59;100.00;99966.19;4895949;29;20092;-78
2023/04/24 01:04:45;;;;;;;22.88;15.45;;;;;;;8.56;100.00;99958.38;4897103;29;20084;-78
2023/04/24 01:07:12;;;;;;;20.20;15.63;;;;;;;8.60;100.00;99957.34;4896960;29;20024;-78
2023/04/24 01:09:43;;;;;;;21.90;15.35;;;;;;;8.57;100.00;99953.03;4897066;29;20040;-78
2023/04/24 01:12:12;;;;;;;22.35;11.13;;;;;;;8.61;100.00;99957.31;4896872;29;20337;-79
2023/04/24 01:14:38;;;;;;;23.80;17.08;;;;;;;8.55;100.00;99957.47;4895769;29;20043;-78
2023/04/24 01:17:03;;;;;;;25.33;15.90;;;;;;;8.56;100.00;99955.72;4917182;29;20096;-78
2023/04/24 01:19:29;;;;;;;26.35;17.60;;;;;;;8.57;100.00;99955.66;4906595;29;20036;-79
2023/04/24 01:21:58;;;;;;;24.77;17.02;;;;;;;8.52;100.00;99952.28;4901288;29;20385;-78
2023/04/24 01:24:24;;;;;;;24.58;17.10;;;;;;;8.48;100.00;99960.31;4896312;29;20048;-78
2023/04/24 01:26:49;;;;;;;26.70;15.05;;;;;;;8.44;100.00;99953.41;4896759;29;20496;-78
2023/04/24 01:29:15;;;;;;;22.45;15.82;;;;;;;8.45;100.00;99960.41;4881840;29;20438;-79
2023/04/24 01:31:42;;;;;;;19.02;16.23;;;;;;;8.40;100.00;99950.84;4900405;29;20051;-78
2023/04/24 01:34:08;;;;;;;27.30;15.82;;;;;;;8.39;100.00;99959.69;4898808;29;20028;-78
2023/04/24 01:36:34;;;;;;;25.40;17.00;;;;;;;8.35;100.00;99967.69;4900046;29;20041;-78
2023/04/24 01:39:00;;;;;;;23.85;16.70;;;;;;;8.30;100.00;99961.66;4901135;29;20053;-78
2023/04/24 01:41:26;;;;;;;23.48;15.27;;;;;;;8.24;100.00;99953.94;4898745;29;20338;-78
2023/04/24 01:43:53;;;;;;;22.55;17.00;;;;;;;8.29;100.00;99963.44;4914418;29;20036;-77
2023/04/24 01:46:19;;;;;;;26.17;16.88;;;;;;;8.27;100.00;99957.34;4898259;29;20028;-75
2023/04/24 01:48:45;;;;;;;22.77;18.33;;;;;;;8.26;100.00;99960.91;4898142;29;20040;-76
2023/04/24 01:51:11;;;;;;;25.38;17.75;;;;;;;8.25;100.00;99956.50;4902776;29;20510;-78
2023/04/24 01:53:36;;;;;;;23.13;18.63;;;;;;;8.26;100.00;99954.72;4902886;29;20028;-77
2023/04/24 01:56:02;;;;;;;29.17;20.35;;;;;;;8.19;100.00;99952.25;4898173;29;20124;-77
2023/04/24 01:58:29;;;;;;;26.92;20.70;;;;;;;8.22;100.00;99953.97;4897993;29;20044;-77
2023/04/24 02:00:58;;;;;;;36.33;24.20;;;;;;;8.21;100.00;99957.50;4899634;29;20069;-76
2023/04/24 02:03:25;;;;;;;32.22;24.23;;;;;;;8.19;100.00;99952.25;4899769;29;20313;-76
2023/04/24 02:05:51;;;;;;;33.17;24.42;;;;;;;8.18;100.00;99962.84;4932761;28;20028;-77
2023/04/24 02:08:16;;;;;;;35.75;23.98;;;;;;;8.16;100.00;99970.81;4916774;29;20720;-77
2023/04/24 02:10:42;;;;;;;36.38;25.25;;;;;;;8.16;100.00;99964.69;4928796;29;20167;-76
2023/04/24 02:13:07;;;;;;;33.72;22.83;;;;;;;8.14;100.00;99963.84;4904017;29;20077;-78
2023/04/24 02:15:33;;;;;;;36.78;24.35;;;;;;;8.15;100.00;99958.50;4900544;29;20028;-76
2023/04/24 02:17:58;;;;;;;33.25;23.88;;;;;;;8.16;100.00;99964.69;4905933;29;20060;-77
2023/04/24 02:20:24;;;;;;;35.83;23.50;;;;;;;8.13;100.00;99968.22;4915224;29;20028;-78
2023/04/24 02:22:49;;;;;;;35.95;26.15;;;;;;;8.10;100.00;99965.69;4918147;29;20047;-76
2023/04/24 02:25:16;;;;;;;37.65;22.73;;;;;;;8.13;100.00;99960.31;4916346;29;20071;-76
2023/04/24 02:27:42;;;;;;;35.88;24.30;;;;;;;8.07;100.00;99970.19;4918065;29;20047;-77
2023/04/24 02:30:09;;;;;;;28.75;22.05;;;;;;;8.06;100.00;99971.06;4917749;29;20051;-76
2023/04/24 02:32:35;;;;;;;29.10;22.60;;;;;;;8.05;100.00;99972.84;4916540;29;20066;-77
2023/04/24 02:35:01;;;;;;;32.28;21.92;;;;;;;8.07;100.00;99972.81;4917679;29;20032;-76
2023/04/24 02:37:26;;;;;;;25.80;18.15;;;;;;;8.10;100.00;99965.69;4917664;29;20032;-76
2023/04/24 02:39:52;;;;;;;29.15;19.63;;;;;;;8.04;100.00;99967.63;4931165;28;20143;-76
2023/04/24 02:42:18;;;;;;;27.95;20.70;;;;;;;7.99;100.00;99965.09;4917159;29;20056;-77
2023/04/24 02:44:44;;;;;;;30.73;21.25;;;;;;;7.96;100.00;99966.06;4932356;29;20107;-77
2023/04/24 02:47:09;;;;;;;30.15;20.85;;;;;;;7.97;100.00;99964.28;4908190;29;20125;-74
2023/04/24 02:49:35;;;;;;;25.27;15.07;;;;;;;7.94;100.00;99951.19;4912222;29;20052;-75
2023/04/24 02:52:00;;;;;;;25.25;18.83;;;;;;;7.98;100.00;99958.94;4906417;29;20094;-74
2023/04/24 02:54:26;;;;;;;28.00;20.85;;;;;;;7.95;100.00;99952.91;4900574;29;20139;-73
2023/04/24 02:56:51;;;;;;;28.23;19.88;;;;;;;7.92;100.00;99958.25;4931620;29;20052;-73
2023/04/24 02:59:17;;;;;;;31.02;19.65;;;;;;;7.91;100.00;99951.22;4887919;29;20047;-73
2023/04/24 03:01:42;;;;;;;35.10;20.10;;;;;;;7.87;100.00;99955.72;4931603;29;20079;-73
2023/04/24 03:04:08;;;;;;;26.85;19.52;;;;;;;7.85;100.00;99944.34;4915890;29;20056;-74
2023/04/24 03:06:35;;;;;;;25.70;18.35;;;;;;;7.87;100.00;99950.47;4917075;29;20079;-74
2023/04/24 03:09:01;;;;;;;26.42;20.27;;;;;;;7.83;100.00;99953.19;4917119;29;20039;-74
2023/04/24 03:11:26;;;;;;;26.15;19.88;;;;;;;7.84;100.00;99953.19;4907799;29;20036;-74
2023/04/24 03:13:51;;;;;;;27.30;18.98;;;;;;;7.86;100.00;99951.38;4924153;28;20128;-76
2023/04/24 03:16:18;;;;;;;26.58;20.05;;;;;;;7.81;100.00;99945.31;4910039;29;20040;-74
2023/04/24 03:18:44;;;;;;;23.40;17.00;;;;;;;7.83;100.00;99956.69;4931245;29;20551;-74
2023/04/24 03:21:09;;;;;;;24.98;18.52;;;;;;;7.80;100.00;99956.78;4917058;29;20044;-74
2023/04/24 03:23:35;;;;;;;25.90;20.55;;;;;;;7.79;100.00;99959.44;4899625;29;20064;-74
2023/04/24 03:26:02;;;;;;;32.40;19.70;;;;;;;7.79;100.00;99952.44;4915780;29;20473;-74
2023/04/24 03:28:27;;;;;;;23.35;17.73;;;;;;;7.81;100.00;99955.88;4915389;29;20036;-74
2023/04/24 03:30:59;;;;;;;24.52;17.40;;;;;;;7.82;100.00;99949.72;4915304;29;20040;-74
2023/04/24 03:33:29;;;;;;;29.88;21.10;;;;;;;7.82;100.00;99948.84;4915596;29;20054;-74
2023/04/24 03:35:59;;;;;;;26.83;16.73;;;;;;;7.80;100.00;99948.88;4915991;29;20078;-74
2023/04/24 03:38:26;;;;;;;25.38;18.75;;;;;;;7.79;100.00;99946.25;4931045;29;20175;-74
2023/04/24 03:40:52;;;;;;;30.98;18.88;;;;;;;7.75;100.00;99950.75;4930220;29;20551;-75
2023/04/24 03:43:40;;;;;;;28.35;20.23;;;;;;;7.75;100.00;99946.34;4915113;29;20048;-75
2023/04/24 03:46:09;;;;;;;27.85;17.85;;;;;;;7.78;100.00;99948.03;4915359;29;20039;-75
2023/04/24 03:48:38;;;;;;;17.88;14.55;;;;;;;7.76;100.00;99944.56;4909987;29;20052;-76
2023/04/24 03:51:05;;;;;;;23.83;16.58;;;;;;;7.75;100.00;99940.22;4901845;29;20396;-75
2023/04/24 03:53:31;;;;;;;18.67;14.60;;;;;;;7.78;100.00;99941.91;4900944;29;20036;-75
2023/04/24 03:55:58;;;;;;;21.92;15.57;;;;;;;7.83;100.00;99943.50;4901088;29;20476;-75
2023/04/24 03:58:24;;;;;;;22.63;16.80;;;;;;;7.76;100.00;99947.22;4927026;29;20141;-75
2023/04/24 04:00:51;;;;;;;18.83;15.48;;;;;;;7.81;100.00;99941.81;4911701;29;20044;-75
2023/04/24 04:03:42;;;;;;;20.73;15.82;;;;;;;7.77;100.00;99943.69;4900823;29;20094;-75
2023/04/24 04:06:08;;;;;;;15.02;11.48;;;;;;;7.83;100.00;99940.88;4911182;29;20401;-77
2023/04/24 04:08:33;;;;;;;22.67;16.63;;;;;;;7.77;100.00;99943.69;4921432;29;20032;-75
2023/04/24 04:10:59;;;;;;;19.90;14.80;;;;;;;7.78;100.00;99934.88;4909467;29;20099;-75
2023/04/24 04:13:25;;;;;;;18.80;13.50;;;;;;;7.72;100.00;99930.63;4930681;28;20031;-75
2023/04/24 04:15:50;;;;;;;22.33;15.57;;;;;;;7.73;100.00;99932.34;4914743;29;20510;-77
2023/04/24 04:18:16;;;;;;;19.63;13.57;;;;;;;7.79;100.00;99939.25;4928729;28;20043;-76
2023/04/24 04:20:42;;;;;;;17.88;12.98;;;;;;;7.83;100.00;99945.28;4919199;29;20051;-77
2023/04/24 04:23:09;;;;;;;19.38;14.27;;;;;;;7.78;100.00;99947.19;4914995;29;20042;-76
2023/04/24 04:25:46;;;;;;;17.25;13.73;;;;;;;7.79;100.00;99948.91;4923548;29;20127;-76
2023/04/24 04:28:13;;;;;;;22.08;15.10;;;;;;;7.74;100.00;99951.69;4924945;29;20044;-76
2023/04/24 04:30:38;;;;;;;18.98;14.40;;;;;;;7.74;100.00;99951.69;4901366;29;20043;-76
2023/04/24 04:33:04;;;;;;;20.02;13.25;;;;;;;7.72;100.00;99945.56;4930475;29;20036;-75
2023/04/24 04:35:31;;;;;;;21.20;13.95;;;;;;;7.70;100.00;99944.75;4901160;29;20131;-76
2023/04/24 04:38:00;;;;;;;19.05;13.27;;;;;;;7.72;100.00;99946.44;4930196;29;20497;-76
2023/04/24 04:40:43;;;;;;;19.60;12.55;;;;;;;7.75;100.00;99963.94;4887982;29;20044;-77
2023/04/24 04:43:10;;;;;;;19.83;15.13;;;;;;;7.69;100.00;99967.59;4914375;29;20508;-76
2023/04/24 04:45:43;;;;;;;17.38;13.57;;;;;;;7.69;100.00;99971.97;4914397;29;20647;-76
2023/04/24 04:48:28;;;;;;;18.67;14.20;;;;;;;7.68;100.00;99965.84;4900802;29;20440;-76
2023/04/24 04:50:56;;;;;;;21.50;16.13;;;;;;;7.65;100.00;99971.19;4924374;29;20044;-76
2023/04/24 04:53:22;;;;;;;22.48;14.77;;;;;;;7.65;100.00;99979.09;4909125;29;20088;-76
2023/04/24 04:55:47;;;;;;;15.65;13.05;;;;;;;7.79;100.00;99977.88;4914074;29;20373;-77
2023/04/24 04:58:15;;;;;;;20.83;14.25;;;;;;;7.68;100.00;99979.03;4895842;29;20021;-77
2023/04/24 05:00:41;;;;;;;17.48;14.75;;;;;;;7.66;100.00;99988.72;4925358;29;20470;-76
2023/04/24 05:03:17;;;;;;;21.60;15.57;;;;;;;7.64;100.00;99985.28;4914472;29;20059;-76
2023/04/24 05:05:43;;;;;;;17.65;14.77;;;;;;;7.66;100.00;99990.50;4933761;28;20496;-76
2023/04/24 05:08:11;;;;;;;22.35;12.00;;;;;;;7.64;100.00;99985.28;4911492;29;20036;-76
2023/04/24 05:10:38;;;;;;;19.60;13.48;;;;;;;7.65;100.00;99987.00;4887966;29;20353;-77
2023/04/24 05:13:04;;;;;;;15.73;11.88;;;;;;;7.65;100.00;99989.63;4915898;29;20031;-76
2023/04/24 05:15:31;;;;;;;15.85;11.10;;;;;;;7.66;100.00;99990.50;4910955;29;20051;-76
2023/04/24 05:17:58;;;;;;;14.85;11.18;;;;;;;7.66;100.00;99994.00;4912057;29;20480;-77
2023/04/24 05:20:24;;;;;;;14.48;10.63;;;;;;;7.65;100.00;99994.06;4917565;29;20040;-77
2023/04/24 05:22:50;;;;;;;11.75;9.68;;;;;;;7.61;100.00;99998.50;4933818;29;20044;-77
2023/04/24 05:25:17;;;;;;;12.75;9.05;;;;;;;7.60;100.00;100004.69;4917351;29;20135;-78
2023/04/24 05:27:53;;;;;;;11.38;8.18;;;;;;;7.59;100.00;99999.44;4903255;29;20480;-77
2023/04/24 05:30:19;;;;;;;15.82;8.40;;;;;;;7.59;100.00;100009.97;4901146;29;20036;-77
2023/04/24 05:32:45;;;;;;;12.85;7.10;;;;;;;7.55;100.00;100006.56;4907549;29;20035;-77
2023/04/24 05:35:15;;;;;;;7.95;5.78;;;;;;;7.55;100.00;99998.66;4917146;29;20032;-77
2023/04/24 05:37:40;;;;;;;6.22;4.45;;;;;;;7.57;100.00;100004.78;4933451;28;20040;-77
2023/04/24 05:40:07;;;;;;;8.25;3.92;;;;;;;7.57;100.00;100004.78;4916975;29;20056;-77
2023/04/24 05:42:33;;;;;;;5.13;3.28;;;;;;;7.52;100.00;100007.50;4917244;29;20044;-77
2023/04/24 05:44:58;;;;;;;4.43;3.42;;;;;;;7.54;100.00;100025.91;4918666;29;20396;-77
2023/04/24 05:47:24;;;;;;;4.95;3.17;;;;;;;7.53;100.00;100040.84;4892199;29;20392;-77
2023/04/24 05:49:51;;;;;;;7.28;3.42;;;;;;;7.54;100.00;100053.13;4923451;29;20053;-76
2023/04/24 05:52:17;;;;;;;5.07;3.42;;;;;;;7.54;100.00;100052.25;4914403;29;20496;-76
2023/04/24 05:54:43;;;;;;;4.38;2.90;;;;;;;7.57;100.00;100054.84;4899506;29;20036;-75
2023/04/24 05:57:11;;;;;;;4.55;3.40;;;;;;;7.58;100.00;100067.09;4911492;29;20036;-74
2023/04/24 05:59:51;;;;;;;7.63;3.90;;;;;;;7.59;100.00;100065.31;4916959;29;20480;-75
2023/04/24 06:02:17;;;;;;;4.15;3.67;;;;;;;7.60;100.00;100061.81;4927481;29;20352;-76
2023/04/24 06:04:44;;;;;;;4.03;3.47;;;;;;;7.66;100.00;100073.06;4901308;29;20036;-75
2023/04/24 06:07:13;;;;;;;6.40;3.95;;;;;;;7.67;100.00;100080.06;4932880;28;20048;-75
2023/04/24 06:09:40;;;;;;;7.43;4.63;;;;;;;7.69;100.00;100078.28;4932672;29;20137;-76
2023/04/24 06:12:08;;;;;;;6.55;4.38;;;;;;;7.70;100.00;100085.28;4911150;29;20052;-75
2023/04/24 06:14:46;;;;;;;6.40;3.95;;;;;;;7.72;100.00;100088.75;4903083;29;20039;-76
2023/04/24 06:17:18;;;;;;;7.65;4.82;;;;;;;7.74;100.00;100089.59;4932470;29;20048;-77
2023/04/24 06:19:45;;;;;;;7.45;4.45;;;;;;;7.73;100.00;100100.16;4916613;29;20068;-75
2023/04/24 06:22:10;;;;;;;6.32;4.45;;;;;;;7.74;100.00;100096.63;4918057;29;20458;-76
2023/04/24 06:24:36;;;;;;;6.63;4.05;;;;;;;7.72;100.00;100109.84;4916553;29;20044;-75
2023/04/24 06:27:02;;;;;;;7.38;4.40;;;;;;;7.77;100.00;100117.63;4917804;29;20059;-75
2023/04/24 06:29:28;;;;;;;5.82;4.80;;;;;;;7.74;100.00;100117.72;4916595;29;20051;-75
2023/04/24 06:31:53;;;;;;;7.57;5.45;;;;;;;7.76;100.00;100129.06;4916238;29;20036;-75
2023/04/24 06:34:19;;;;;;;6.95;5.53;;;;;;;7.76;100.00;100126.44;4916494;29;20177;-75
2023/04/24 06:36:47;;;;;;;7.18;5.72;;;;;;;7.81;100.00;100136.88;4917759;29;20032;-75
2023/04/24 06:39:13;;;;;;;12.38;6.38;;;;;;;7.81;100.00;100139.50;4910252;29;20068;-76
2023/04/24 06:41:39;;;;;;;9.07;6.22;;;;;;;7.81;100.00;100144.78;4924882;29;20051;-77
2023/04/24 06:44:05;;;;;;;8.70;5.90;;;;;;;7.83;100.00;100158.81;4916085;29;20032;-76
2023/04/24 06:46:31;;;;;;;6.07;4.05;;;;;;;7.77;100.00;100148.41;4917378;29;20388;-74
2023/04/24 06:48:56;;;;;;;4.85;3.15;;;;;;;7.72;100.00;100156.41;4900438;29;20095;-76
2023/04/24 06:51:26;;;;;;;6.75;4.47;;;;;;;7.67;100.00;100161.78;4916139;29;20044;-75
2023/04/24 06:53:53;;;;;;;9.30;6.32;;;;;;;7.69;100.00;100175.78;4901782;29;20048;-75
2023/04/24 06:56:18;;;;;;;9.70;6.80;;;;;;;7.64;100.00;100185.56;4905226;29;20028;-73
2023/04/24 06:58:45;;;;;;;11.35;6.57;;;;;;;7.63;100.00;100193.47;4910032;29;20373;-74
2023/04/24 07:01:10;;;;;;;11.80;6.82;;;;;;;7.61;100.00;100187.38;4915203;29;20032;-75
2023/04/24 07:03:36;;;;;;;11.70;7.53;;;;;;;7.62;100.00;100203.16;4905367;29;20128;-74
2023/04/24 07:06:03;;;;;;;12.23;7.70;;;;;;;7.60;100.00;100212.00;4914270;29;20107;-78
2023/04/24 07:08:30;;;;;;;11.63;6.68;;;;;;;7.59;100.00;100203.22;4917149;29;20067;-75
2023/04/24 07:10:56;;;;;;;14.55;8.93;;;;;;;7.53;100.00;100227.91;4909521;29;20080;-76
2023/04/24 07:13:23;;;;;;;19.55;9.65;;;;;;;7.47;100.00;100235.09;4901473;29;20032;-76
2023/04/24 07:15:53;;;;;;;14.95;8.60;;;;;;;7.45;100.00;100247.41;4916792;29;20040;-74
2023/04/24 07:18:20;;;;;;;14.23;8.68;;;;;;;7.42;100.00;100260.63;4916971;29;20044;-74
2023/04/24 07:20:45;;;;;;;16.15;8.77;;;;;;;7.41;100.00;100261.53;4916999;29;20030;-74
2023/04/24 07:23:11;;;;;;;13.88;8.15;;;;;;;7.33;100.00;100269.56;4899851;29;20142;-74
2023/04/24 07:25:38;;;;;;;18.65;8.88;;;;;;;7.33;100.00;100267.78;4916774;29;20036;-74
2023/04/24 07:28:04;;;;;;;16.08;8.98;;;;;;;7.31;100.00;100289.78;4916634;29;20044;-75
2023/04/24 07:30:30;;;;;;;17.65;9.02;;;;;;;7.31;100.00;100295.06;4915170;29;20031;-74
2023/04/24 07:32:56;;;;;;;17.77;8.75;;;;;;;7.31;100.00;100309.09;4915392;29;20055;-75
2023/04/24 07:35:21;;;;;;;17.58;9.13;;;;;;;7.29;100.00;100307.38;4916510;29;20032;-75
2023/04/24 07:37:47;;;;;;;20.55;8.23;;;;;;;7.32;100.00;100312.63;4916594;29;20071;-74
2023/04/24 07:40:13;;;;;;;14.02;8.07;;;;;;;7.36;100.00;100329.22;4901533;29;20083;-74
2023/04/24 07:42:39;;;;;;;14.95;7.68;;;;;;;7.31;100.00;100324.03;4899344;29;20047;-76
2023/04/24 07:45:06;;;;;;;22.75;8.45;;;;;;;7.32;100.00;100341.59;4916199;29;20068;-76
2023/04/24 07:47:32;;;;;;;13.15;8.15;;;;;;;7.34;100.00;100358.22;4900159;29;20040;-76
2023/04/24 07:49:58;;;;;;;20.98;8.57;;;;;;;7.32;100.00;100354.75;4906235;29;20032;-74
2023/04/24 07:52:24;;;;;;;15.63;6.03;;;;;;;7.32;100.00;100360.91;4911720;29;20068;-76
2023/04/24 07:54:50;;;;;;;19.92;6.68;;;;;;;7.23;100.00;100361.03;4905302;29;20079;-74
2023/04/24 07:57:16;;;;;;;17.65;6.10;;;;;;;7.27;100.00;100375.00;4916073;29;20071;-75
2023/04/24 07:59:41;;;;;;;15.80;5.75;;;;;;;7.27;100.00;100377.63;4907539;29;20507;-75
2023/04/24 08:02:07;;;;;;;17.48;6.43;;;;;;;7.28;100.00;100379.41;4903776;29;20127;-74
2023/04/24 08:04:33;;;;;;;14.57;5.70;;;;;;;7.30;100.00;100386.38;4901955;29;20051;-74
2023/04/24 08:07:01;;;;;;;19.20;5.50;;;;;;;7.29;100.00;100391.66;4915941;29;20368;-75
2023/04/24 08:09:27;;;;;;;16.95;5.53;;;;;;;7.32;100.00;100395.13;4916040;29;20487;-75
2023/04/24 08:11:53;;;;;;;23.35;5.38;;;;;;;7.29;100.00;100402.19;4904252;29;20111;-74
2023/04/24 08:14:18;;;;;;;23.90;6.07;;;;;;;7.29;100.00;100405.72;4915782;29;20436;-75
2023/04/24 08:16:44;;;;;;;22.98;6.45;;;;;;;7.31;100.00;100410.94;4902043;29;20032;-75
2023/04/24 08:19:10;;;;;;;16.67;5.75;;;;;;;7.37;100.00;100421.41;4905571;29;20028;-75
2023/04/24 08:21:36;;;;;;;21.52;6.78;;;;;;;7.35;100.00;100423.19;4909910;29;20036;-74
2023/04/24 08:24:04;;;;;;;21.42;5.93;;;;;;;7.36;100.00;100434.59;4903407;29;20038;-74
2023/04/24 08:26:31;;;;;;;15.25;5.00;;;;;;;7.35;100.00;100441.63;4901693;29;20456;-76
2023/04/24 08:28:56;;;;;;;20.50;5.88;;;;;;;7.36;100.00;100446.00;4915125;29;20428;-75
2023/04/24 08:31:22;;;;;;;10.88;4.35;;;;;;;7.39;100.00;100463.50;4930094;29;20052;-75
2023/04/24 08:33:48;;;;;;;12.00;4.57;;;;;;;7.36;100.00;100455.66;4915477;29;20063;-75
2023/04/24 08:36:13;;;;;;;16.27;4.20;;;;;;;7.37;100.00;100468.81;4906255;29;20123;-75
2023/04/24 08:38:39;;;;;;;19.02;4.55;;;;;;;7.36;100.00;100464.44;4908455;29;20036;-76
2023/04/24 08:41:05;;;;;;;21.52;4.78;;;;;;;7.33;100.00;100469.75;4879891;29;20043;-75
2023/04/24 08:43:33;;;;;;;24.23;7.05;;;;;;;7.29;100.00;100468.94;4896430;29;20044;-75
2023/04/24 08:46:00;;;;;;;18.55;4.97;;;;;;;7.37;100.00;100479.38;4889219;29;20077;-74
2023/04/24 08:48:26;;;;;;;20.38;4.32;;;;;;;7.39;100.00;100481.94;4903009;29;20032;-75
2023/04/24 08:50:52;;;;;;;20.17;4.75;;;;;;;7.46;100.00;100491.50;4913634;29;20032;-74
2023/04/24 08:53:19;;;;;;;23.80;5.70;;;;;;;7.46;100.00;100494.16;4884208;29;20391;-74
2023/04/24 08:55:47;;;;;;;17.95;4.95;;;;;;;7.49;100.00;100502.91;4881457;29;20437;-74
2023/04/24 08:58:13;;;;;;;17.65;4.43;;;;;;;7.54;100.00;100503.69;4908077;29;20103;-74
2023/04/24 09:00:39;;;;;;;22.17;5.43;;;;;;;7.56;100.00;100495.75;4911438;29;20488;-73
2023/04/24 09:03:05;;;;;;;17.42;4.40;;;;;;;7.51;100.00;100511.63;4910272;29;20036;-73
2023/04/24 09:05:32;;;;;;;15.40;4.10;;;;;;;7.54;100.00;100515.97;4896425;29;20468;-74
2023/04/24 09:08:01;;;;;;;18.83;4.25;;;;;;;7.58;100.00;100516.81;4896387;29;20024;-74
2023/04/24 09:10:30;;;;;;;13.80;4.70;;;;;;;7.56;100.00;100510.69;4907156;29;20040;-75
2023/04/24 09:12:58;;;;;;;18.90;4.55;;;;;;;7.56;100.00;100526.50;4913899;29;20036;-74
2023/04/24 09:15:24;;;;;;;19.30;3.97;;;;;;;7.61;100.00;100536.06;4914937;29;20028;-74
2023/04/24 09:17:50;;;;;;;19.60;5.07;;;;;;;7.63;100.00;100520.25;4898234;29;20033;-74
2023/04/24 09:20:16;;;;;;;14.63;4.03;;;;;;;7.60;100.00;100523.81;4898020;29;20416;-75
2023/04/24 09:22:43;;;;;;;12.20;3.67;;;;;;;7.67;100.00;100537.78;4915214;29;20028;-75
2023/04/24 09:25:12;;;;;;;17.63;3.75;;;;;;;7.68;100.00;100531.59;4914541;29;20531;-75
2023/04/24 09:27:43;;;;;;;14.10;3.47;;;;;;;7.74;100.00;100552.59;4898516;29;20032;-74
2023/04/24 09:30:09;;;;;;;12.90;3.20;;;;;;;7.82;100.00;100545.44;4897721;29;20070;-74
2023/04/24 09:32:34;;;;;;;13.27;3.38;;;;;;;7.97;100.00;100554.88;4915114;29;20036;-75
2023/04/24 09:35:14;;;;;;;14.27;3.72;;;;;;;8.02;100.00;100560.94;4898108;29;20055;-75
2023/04/24 09:37:45;;;;;;;9.30;3.10;;;;;;;8.02;100.00;100568.00;4891601;29;20049;-74
2023/04/24 09:40:16;;;;;;;15.30;3.38;;;;;;;7.93;100.00;100569.00;4914477;29;20060;-74
2023/04/24 09:42:52;;;;;;;16.05;3.35;;;;;;;7.89;100.00;100577.88;4908416;29;20449;-75
2023/04/24 09:45:18;;;;;;;11.20;2.85;;;;;;;7.83;100.00;100584.09;4895998;29;20045;-74
2023/04/24 09:47:43;;;;;;;23.45;4.47;;;;;;;7.77;100.00;100594.72;4901735;29;20080;-75
2023/04/24 09:50:13;;;;;;;13.80;3.53;;;;;;;7.71;100.00;100597.44;4887822;29;20056;-75
2023/04/24 09:52:41;;;;;;;14.20;3.45;;;;;;;7.61;100.00;100591.41;4904165;29;20032;-74
2023/04/24 09:55:20;;;;;;;14.57;3.35;;;;;;;7.67;100.00;100606.31;4918408;29;20115;-74
2023/04/24 09:57:50;;;;;;;17.00;3.60;;;;;;;7.65;100.00;100610.72;4893800;29;20040;-75
2023/04/24 10:00:40;;;;;;;13.80;3.20;;;;;;;7.58;100.00;100609.06;4912786;29;20052;-74
2023/04/24 10:03:06;;;;;;;11.33;2.73;;;;;;;7.59;100.00;100624.84;4911724;29;20047;-75
2023/04/24 10:05:36;;;;;;;16.23;3.63;;;;;;;7.66;100.00;100636.16;4910359;29;20036;-75
2023/04/24 10:08:10;;;;;;;16.17;3.40;;;;;;;7.66;98.91;100628.25;4895846;29;20032;-75
2023/04/24 10:10:43;;;;;;;13.88;3.40;;;;;;;7.71;100.00;100619.38;4894116;29;20039;-76
2023/04/24 10:13:10;;;;;;;12.15;3.03;;;;;;;7.80;100.00;100636.00;4916177;29;20131;-75
2023/04/24 10:15:37;;;;;;;12.38;2.78;;;;;;;7.85;96.85;100639.44;4907372;29;20035;-76
2023/04/24 10:18:06;;;;;;;9.52;3.53;;;;;;;7.87;96.17;100638.53;4918009;29;20094;-75
2023/04/24 10:20:32;;;;;;;12.80;2.80;;;;;;;7.84;97.27;100633.28;4900576;29;20024;-77
2023/04/24 10:22:59;;;;;;;13.85;2.70;;;;;;;7.86;96.00;100635.91;4894557;29;20040;-76
2023/04/24 10:25:27;;;;;;;10.88;2.83;;;;;;;7.88;96.98;100636.75;4881485;29;20032;-77
2023/04/24 10:27:57;;;;;;;9.23;2.75;;;;;;;7.84;94.77;100621.84;4907594;29;20043;-76
2023/04/24 10:30:23;;;;;;;15.50;3.92;;;;;;;7.84;94.27;100653.50;4880880;29;20041;-75
2023/04/24 10:32:48;;;;;;;8.68;1.80;;;;;;;7.84;92.81;100656.13;4883782;29;20032;-77
2023/04/24 10:35:17;;;;;;;6.70;2.10;;;;;;;7.78;93.43;100649.19;4913328;29;20055;-76
2023/04/24 10:37:50;;;;;;;6.22;1.90;;;;;;;7.74;92.67;100658.03;4894439;29;20035;-75
2023/04/24 10:40:18;;;;;;;7.13;1.67;;;;;;;7.71;93.09;100658.94;4896537;29;20075;-76
2023/04/24 10:42:48;;;;;;;8.73;2.20;;;;;;;7.70;94.01;100666.88;4905970;29;20554;-75
2023/04/24 10:45:21;;;;;;;9.60;2.30;;;;;;;7.78;92.95;100677.31;4918115;29;20039;-76
2023/04/24 10:47:56;;;;;;;6.18;1.65;;;;;;;7.80;92.17;100680.81;4920171;29;20055;-76
2023/04/24 10:50:22;;;;;;;8.50;1.90;;;;;;;7.88;91.24;100684.19;4917263;29;20084;-76
2023/04/24 10:52:50;;;;;;;4.97;1.70;;;;;;;7.86;91.41;100678.97;4917587;29;20043;-76
2023/04/24 10:55:36;;;;;;;4.45;1.23;;;;;;;7.84;90.80;100680.75;4916111;29;20040;-76
2023/04/24 10:58:03;;;;;;;7.90;1.75;;;;;;;7.84;93.18;100672.84;4893369;29;20032;-78
2023/04/24 11:00:29;;;;;;;7.25;2.05;;;;;;;7.85;94.20;100686.88;4903234;29;20033;-79
2023/04/24 11:02:55;;;;;;;8.45;2.17;;;;;;;7.84;93.14;100690.41;4916069;29;20048;-78
2023/04/24 11:05:21;;;;;;;7.95;2.00;;;;;;;7.91;92.74;100692.06;4917468;29;20079;-78
2023/04/24 11:08:13;;;;;;;10.20;1.98;;;;;;;7.88;93.57;100708.81;4902940;29;20132;-78
2023/04/24 11:10:57;;;;;;;6.40;2.03;;;;;;;7.79;90.01;100684.31;4917168;29;20075;-79
2023/04/24 11:13:25;;;;;;;7.63;1.50;;;;;;;7.78;91.04;100701.03;4911634;29;20051;-79
2023/04/24 11:16:21;;;;;;;4.72;1.73;;;;;;;7.89;92.87;100692.09;4915878;29;20115;-79
2023/04/24 11:18:52;;;;;;;6.15;1.85;;;;;;;8.03;92.97;100686.63;4910802;29;20147;-79
2023/04/24 11:21:18;;;;;;;5.88;2.35;;;;;;;8.18;88.26;100704.00;4898826;29;20044;-80